createdAt,value
2018-05-12T00:00:36.464Z,0.00
2018-05-12T00:01:36.457Z,0.00
2018-05-12T00:02:36.447Z,0.00
2018-05-12T00:03:36.455Z,0.00
2018-05-12T00:04:36.444Z,0.00
2018-05-12T00:05:36.436Z,0.00
2018-05-12T00:06:36.429Z,0.00
2018-05-12T00:07:36.424Z,0.00
2018-05-12T00:08:36.416Z,0.00
2018-05-12T00:09:36.411Z,0.00
2018-05-12T00:10:36.407Z,0.00
2018-05-12T00:11:36.408Z,0.00
2018-05-12T00:12:36.401Z,0.00
2018-05-12T00:13:36.400Z,0.00
2018-05-12T00:14:36.389Z,0.00
2018-05-12T00:15:36.382Z,0.00
2018-05-12T00:16:36.388Z,0.00
2018-05-12T00:17:36.363Z,0.00
2018-05-12T00:18:36.382Z,0.00
2018-05-12T00:19:36.357Z,0.00
2018-05-12T00:20:36.348Z,0.00
2018-05-12T00:21:36.346Z,0.00
2018-05-12T00:22:36.344Z,0.00
2018-05-12T00:23:36.332Z,0.00
2018-05-12T00:24:36.339Z,0.00
2018-05-12T00:25:36.316Z,0.00
2018-05-12T00:26:36.314Z,0.00
2018-05-12T00:27:36.305Z,0.00
2018-05-12T00:28:36.305Z,0.00
2018-05-12T00:29:36.298Z,0.00
2018-05-12T00:30:36.295Z,0.00
2018-05-12T00:31:36.285Z,0.00
2018-05-12T00:32:36.284Z,0.00
2018-05-12T00:33:36.274Z,0.00
2018-05-12T00:34:36.271Z,0.00
2018-05-12T00:35:36.263Z,0.00
2018-05-12T00:36:36.258Z,0.00
2018-05-12T00:37:36.255Z,0.00
2018-05-12T00:38:36.250Z,0.00
2018-05-12T00:39:36.237Z,0.00
2018-05-12T00:40:36.247Z,0.00
2018-05-12T00:41:36.233Z,0.00
2018-05-12T00:42:36.233Z,0.00
2018-05-12T00:43:36.216Z,0.00
2018-05-12T00:44:36.212Z,0.00
2018-05-12T00:45:36.204Z,0.00
2018-05-12T00:46:36.200Z,0.00
2018-05-12T00:47:36.197Z,0.00
2018-05-12T00:48:36.197Z,0.00
2018-05-12T00:49:36.193Z,0.00
2018-05-12T00:50:36.187Z,0.00
2018-05-12T00:51:36.172Z,0.00
2018-05-12T00:52:36.165Z,0.00
2018-05-12T00:53:36.179Z,0.00
2018-05-12T00:54:36.166Z,0.00
2018-05-12T00:55:36.161Z,0.00
2018-05-12T00:56:36.143Z,0.00
2018-05-12T00:57:36.142Z,0.00
2018-05-12T00:58:36.136Z,0.00
2018-05-12T00:59:36.129Z,0.00
2018-05-12T01:00:36.120Z,0.00
2018-05-12T01:01:36.117Z,0.00
2018-05-12T01:02:36.111Z,0.00
2018-05-12T01:03:36.110Z,0.00
2018-05-12T01:04:36.101Z,0.00
2018-05-12T01:05:36.826Z,0.00
2018-05-12T01:06:36.089Z,0.00
2018-05-12T01:07:36.080Z,0.00
2018-05-12T01:08:36.075Z,0.00
2018-05-12T01:09:36.072Z,0.00
2018-05-12T01:10:36.066Z,0.00
2018-05-12T01:11:36.060Z,0.00
2018-05-12T01:12:36.824Z,0.00
2018-05-12T01:13:36.072Z,0.00
2018-05-12T01:14:36.049Z,0.00
2018-05-12T01:15:36.040Z,0.00
2018-05-12T01:16:36.032Z,0.00
2018-05-12T01:17:36.025Z,0.00
2018-05-12T01:18:36.018Z,0.00
2018-05-12T01:19:36.016Z,0.00
2018-05-12T01:20:36.005Z,0.00
2018-05-12T01:21:36.827Z,0.00
2018-05-12T01:22:35.994Z,0.00
2018-05-12T01:23:36.003Z,0.00
2018-05-12T01:24:35.987Z,0.00
2018-05-12T01:25:35.978Z,0.00
2018-05-12T01:26:35.971Z,0.00
2018-05-12T01:27:35.970Z,0.00
2018-05-12T01:28:35.968Z,0.00
2018-05-12T01:29:35.958Z,0.00
2018-05-12T01:30:35.954Z,0.00
2018-05-12T01:31:35.947Z,0.00
2018-05-12T01:32:35.943Z,0.00
2018-05-12T01:33:35.944Z,0.00
2018-05-12T01:34:35.930Z,0.00
2018-05-12T01:35:35.925Z,0.00
2018-05-12T01:36:35.920Z,0.00
2018-05-12T01:37:35.913Z,0.00
2018-05-12T01:38:35.909Z,0.00
2018-05-12T01:39:35.902Z,0.00
2018-05-12T01:40:35.930Z,0.00
2018-05-12T01:41:35.894Z,0.00
2018-05-12T01:42:35.883Z,0.00
2018-05-12T01:43:35.881Z,0.00
2018-05-12T01:44:36.835Z,0.00
2018-05-12T01:45:35.874Z,0.00
2018-05-12T01:46:35.863Z,0.00
2018-05-12T01:47:35.856Z,0.00
2018-05-12T01:48:35.852Z,0.00
2018-05-12T01:49:35.847Z,0.00
2018-05-12T01:50:35.838Z,0.00
2018-05-12T01:51:35.839Z,0.00
2018-05-12T01:52:35.832Z,0.00
2018-05-12T01:53:35.820Z,0.00
2018-05-12T01:54:35.817Z,0.00
2018-05-12T01:55:35.816Z,0.00
2018-05-12T01:56:35.806Z,0.00
2018-05-12T01:57:35.801Z,0.00
2018-05-12T01:58:35.810Z,0.00
2018-05-12T01:59:35.788Z,0.00
2018-05-12T02:00:35.786Z,0.00
2018-05-12T02:01:35.774Z,0.00
2018-05-12T02:02:35.769Z,0.00
2018-05-12T02:03:35.764Z,0.00
2018-05-12T02:04:35.772Z,0.00
2018-05-12T02:05:35.757Z,0.00
2018-05-12T02:06:35.746Z,0.00
2018-05-12T02:07:35.741Z,0.00
2018-05-12T02:08:35.739Z,0.00
2018-05-12T02:09:35.732Z,0.00
2018-05-12T02:10:35.728Z,0.00
2018-05-12T02:11:35.722Z,0.00
2018-05-12T02:12:35.718Z,0.00
2018-05-12T02:13:35.711Z,0.00
2018-05-12T02:14:35.704Z,0.00
2018-05-12T02:15:35.698Z,0.00
2018-05-12T02:16:36.343Z,0.00
2018-05-12T02:17:35.693Z,0.00
2018-05-12T02:18:35.680Z,0.00
2018-05-12T02:19:35.676Z,0.00
2018-05-12T02:20:35.668Z,0.00
2018-05-12T02:21:35.662Z,0.00
2018-05-12T02:22:35.656Z,0.00
2018-05-12T02:23:35.652Z,0.00
2018-05-12T02:24:35.649Z,0.00
2018-05-12T02:25:35.649Z,0.00
2018-05-12T02:26:35.637Z,0.00
2018-05-12T02:27:35.633Z,0.00
2018-05-12T02:28:35.633Z,0.00
2018-05-12T02:29:35.618Z,0.00
2018-05-12T02:30:35.613Z,0.00
2018-05-12T02:31:35.632Z,0.00
2018-05-12T02:32:35.609Z,0.00
2018-05-12T02:33:35.603Z,0.00
2018-05-12T02:34:35.590Z,0.00
2018-05-12T02:35:35.587Z,0.00
2018-05-12T02:36:35.596Z,0.00
2018-05-12T02:37:36.349Z,0.00
2018-05-12T02:38:35.569Z,0.00
2018-05-12T02:39:35.571Z,0.00
2018-05-12T02:40:35.562Z,0.00
2018-05-12T02:41:35.557Z,0.00
2018-05-12T02:42:35.548Z,0.00
2018-05-12T02:43:35.546Z,0.00
2018-05-12T02:44:35.540Z,0.00
2018-05-12T02:45:35.539Z,0.00
2018-05-12T02:46:35.533Z,0.00
2018-05-12T02:47:35.528Z,0.00
2018-05-12T02:48:35.514Z,0.00
2018-05-12T02:49:35.520Z,0.00
2018-05-12T02:50:35.502Z,0.00
2018-05-12T02:51:35.502Z,0.00
2018-05-12T02:52:35.490Z,0.00
2018-05-12T02:53:35.498Z,0.00
2018-05-12T02:54:35.484Z,0.00
2018-05-12T02:55:35.569Z,0.00
2018-05-12T02:56:35.468Z,0.00
2018-05-12T02:57:35.465Z,0.00
2018-05-12T02:58:35.463Z,0.00
2018-05-12T02:59:35.457Z,0.00
2018-05-12T03:00:35.452Z,0.00
2018-05-12T03:01:35.445Z,0.00
2018-05-12T03:02:35.436Z,0.00
2018-05-12T03:03:35.427Z,0.00
2018-05-12T03:04:35.423Z,0.00
2018-05-12T03:05:35.425Z,0.00
2018-05-12T03:06:35.420Z,0.00
2018-05-12T03:07:35.409Z,0.00
2018-05-12T03:08:35.411Z,0.00
2018-05-12T03:09:35.398Z,0.00
2018-05-12T03:10:35.390Z,0.00
2018-05-12T03:11:35.390Z,0.00
2018-05-12T03:12:35.382Z,0.00
2018-05-12T03:13:35.378Z,0.00
2018-05-12T03:14:35.373Z,0.00
2018-05-12T03:15:35.369Z,0.00
2018-05-12T03:16:35.355Z,0.00
2018-05-12T03:17:35.349Z,0.00
2018-05-12T03:18:35.350Z,0.00
2018-05-12T03:19:35.343Z,0.00
2018-05-12T03:20:35.336Z,0.00
2018-05-12T03:21:35.329Z,0.00
2018-05-12T03:22:35.326Z,0.00
2018-05-12T03:23:35.314Z,0.00
2018-05-12T03:24:35.317Z,0.00
2018-05-12T03:25:35.306Z,0.00
2018-05-12T03:26:35.315Z,5.63
2018-05-12T03:27:35.294Z,5.63
2018-05-12T03:28:35.293Z,5.63
2018-05-12T03:29:35.286Z,5.63
2018-05-12T03:30:35.277Z,5.63
2018-05-12T03:31:35.268Z,5.63
2018-05-12T03:32:35.268Z,11.25
2018-05-12T03:33:35.260Z,11.25
2018-05-12T03:34:35.256Z,11.25
2018-05-12T03:35:35.246Z,11.25
2018-05-12T03:36:35.250Z,16.88
2018-05-12T03:37:35.231Z,16.88
2018-05-12T03:38:35.230Z,16.88
2018-05-12T03:39:35.221Z,16.88
2018-05-12T03:40:35.220Z,22.50
2018-05-12T03:41:35.217Z,22.50
2018-05-12T03:42:35.210Z,22.50
2018-05-12T03:43:35.193Z,28.13
2018-05-12T03:44:35.200Z,28.13
2018-05-12T03:45:35.181Z,28.13
2018-05-12T03:46:35.175Z,33.75
2018-05-12T03:47:35.171Z,33.75
2018-05-12T03:48:35.164Z,33.75
2018-05-12T03:49:35.162Z,39.38
2018-05-12T03:50:35.161Z,39.38
2018-05-12T03:51:35.154Z,45.00
2018-05-12T03:52:35.141Z,45.00
2018-05-12T03:53:35.136Z,50.63
2018-05-12T03:54:35.128Z,50.63
2018-05-12T03:55:35.121Z,56.25
2018-05-12T03:56:35.126Z,56.25
2018-05-12T03:57:35.122Z,61.88
2018-05-12T03:58:35.109Z,67.50
2018-05-12T03:59:35.108Z,67.50
2018-05-12T04:00:35.102Z,73.13
2018-05-12T04:01:35.088Z,73.13
2018-05-12T04:02:35.078Z,78.75
2018-05-12T04:03:35.075Z,84.38
2018-05-12T04:04:35.066Z,84.38
2018-05-12T04:05:35.067Z,90.00
2018-05-12T04:06:35.060Z,95.63
2018-05-12T04:07:35.055Z,95.63
2018-05-12T04:08:35.087Z,101.25
2018-05-12T04:09:35.033Z,106.88
2018-05-12T04:10:35.029Z,112.50
2018-05-12T04:11:35.026Z,112.50
2018-05-12T04:12:35.013Z,118.13
2018-05-12T04:13:35.008Z,123.75
2018-05-12T04:14:35.013Z,123.75
2018-05-12T04:15:35.002Z,129.38
2018-05-12T04:16:34.993Z,135.00
2018-05-12T04:17:34.989Z,140.63
2018-05-12T04:18:34.979Z,146.25
2018-05-12T04:19:34.984Z,146.25
2018-05-12T04:20:34.967Z,151.88
2018-05-12T04:21:34.961Z,157.50
2018-05-12T04:22:34.955Z,163.13
2018-05-12T04:23:34.953Z,168.75
2018-05-12T04:24:34.941Z,174.38
2018-05-12T04:25:34.932Z,180.00
2018-05-12T04:26:34.928Z,185.63
2018-05-12T04:27:34.943Z,191.25
2018-05-12T04:28:34.922Z,196.88
2018-05-12T04:29:34.917Z,202.50
2018-05-12T04:30:34.905Z,208.13
2018-05-12T04:31:34.896Z,213.75
2018-05-12T04:32:34.894Z,219.38
2018-05-12T04:33:34.892Z,225.00
2018-05-12T04:34:34.886Z,230.63
2018-05-12T04:35:34.873Z,230.63
2018-05-12T04:36:34.871Z,236.25
2018-05-12T04:37:34.903Z,241.88
2018-05-12T04:38:34.852Z,247.50
2018-05-12T04:39:34.845Z,253.13
2018-05-12T04:40:34.839Z,258.75
2018-05-12T04:41:34.829Z,264.38
2018-05-12T04:42:34.833Z,270.00
2018-05-12T04:43:34.857Z,275.63
2018-05-12T04:44:34.821Z,281.25
2018-05-12T04:45:34.820Z,286.88
2018-05-12T04:46:34.816Z,298.13
2018-05-12T04:47:34.804Z,320.63
2018-05-12T04:48:34.801Z,382.50
2018-05-12T04:49:34.787Z,421.88
2018-05-12T04:50:34.798Z,433.13
2018-05-12T04:51:34.785Z,450.00
2018-05-12T04:52:34.782Z,466.88
2018-05-12T04:53:34.766Z,483.75
2018-05-12T04:54:34.761Z,506.25
2018-05-12T04:55:34.763Z,528.75
2018-05-12T04:56:34.751Z,545.63
2018-05-12T04:57:34.751Z,568.13
2018-05-12T04:58:34.736Z,579.38
2018-05-12T04:59:34.733Z,624.38
2018-05-12T05:00:34.716Z,691.88
2018-05-12T05:01:34.714Z,703.13
2018-05-12T05:02:34.706Z,736.88
2018-05-12T05:03:34.702Z,770.63
2018-05-12T05:04:34.702Z,815.63
2018-05-12T05:05:34.688Z,798.75
2018-05-12T05:06:34.693Z,826.88
2018-05-12T05:07:34.685Z,866.25
2018-05-12T05:08:34.668Z,888.75
2018-05-12T05:09:34.671Z,916.88
2018-05-12T05:10:34.666Z,928.13
2018-05-12T05:11:34.656Z,905.63
2018-05-12T05:12:34.655Z,911.25
2018-05-12T05:13:34.641Z,905.63
2018-05-12T05:14:34.637Z,945.00
2018-05-12T05:15:34.635Z,1006.88
2018-05-12T05:16:34.635Z,1074.38
2018-05-12T05:17:34.626Z,1153.13
2018-05-12T05:18:34.626Z,1153.13
2018-05-12T05:19:34.611Z,1141.88
2018-05-12T05:20:34.612Z,1125.00
2018-05-12T05:21:34.609Z,1102.50
2018-05-12T05:22:34.600Z,1203.75
2018-05-12T05:23:34.596Z,1260.00
2018-05-12T05:24:34.590Z,1265.63
2018-05-12T05:25:34.589Z,1282.50
2018-05-12T05:26:34.586Z,1344.38
2018-05-12T05:27:34.585Z,1276.88
2018-05-12T05:28:34.574Z,1254.38
2018-05-12T05:29:34.569Z,1327.50
2018-05-12T05:30:34.566Z,1333.13
2018-05-12T05:31:34.576Z,1355.63
2018-05-12T05:32:34.559Z,1445.63
2018-05-12T05:33:34.552Z,1490.63
2018-05-12T05:34:34.552Z,1473.75
2018-05-12T05:35:34.566Z,1440.00
2018-05-12T05:36:34.544Z,1530.00
2018-05-12T05:37:34.545Z,1603.13
2018-05-12T05:38:34.544Z,1631.25
2018-05-12T05:39:34.535Z,1687.50
2018-05-12T05:40:34.526Z,1766.25
2018-05-12T05:41:34.568Z,1794.38
2018-05-12T05:42:34.531Z,1805.63
2018-05-12T05:43:34.525Z,1839.38
2018-05-12T05:44:34.517Z,1794.38
2018-05-12T05:45:34.515Z,1816.88
2018-05-12T05:46:34.512Z,1923.75
2018-05-12T05:47:34.514Z,1890.00
2018-05-12T05:48:34.501Z,1861.88
2018-05-12T05:49:34.507Z,1906.88
2018-05-12T05:50:34.507Z,2025.00
2018-05-12T05:51:34.496Z,1923.75
2018-05-12T05:52:34.493Z,1811.25
2018-05-12T05:53:34.494Z,1901.25
2018-05-12T05:54:34.490Z,1676.25
2018-05-12T05:55:34.488Z,2053.13
2018-05-12T05:56:34.481Z,2109.38
2018-05-12T05:57:34.490Z,2047.50
2018-05-12T05:58:34.572Z,2002.50
2018-05-12T05:59:34.483Z,2143.13
2018-05-12T06:00:34.480Z,2115.00
2018-05-12T06:01:34.474Z,2165.63
2018-05-12T06:02:34.468Z,2205.00
2018-05-12T06:03:34.469Z,1884.38
2018-05-12T06:04:34.465Z,1822.50
2018-05-12T06:05:34.465Z,1935.00
2018-05-12T06:06:34.495Z,2086.88
2018-05-12T06:07:34.480Z,2340.00
2018-05-12T06:08:34.462Z,2396.25
2018-05-12T06:09:34.460Z,2311.88
2018-05-12T06:10:34.467Z,2126.25
2018-05-12T06:11:34.457Z,2160.00
2018-05-12T06:12:34.456Z,1906.88
2018-05-12T06:13:34.463Z,1361.25
2018-05-12T06:14:34.462Z,1113.75
2018-05-12T06:15:34.449Z,984.38
2018-05-12T06:16:34.447Z,933.75
2018-05-12T06:17:34.447Z,928.13
2018-05-12T06:18:34.452Z,916.88
2018-05-12T06:19:34.448Z,922.50
2018-05-12T06:20:34.443Z,939.38
2018-05-12T06:21:34.444Z,1006.88
2018-05-12T06:22:34.441Z,1091.25
2018-05-12T06:23:34.443Z,1147.50
2018-05-12T06:24:34.439Z,1125.00
2018-05-12T06:25:34.507Z,1130.63
2018-05-12T06:26:34.451Z,1164.38
2018-05-12T06:27:34.433Z,1479.38
2018-05-12T06:28:34.446Z,2379.38
2018-05-12T06:29:34.436Z,2705.63
2018-05-12T06:30:34.438Z,2559.38
2018-05-12T06:31:34.431Z,2475.00
2018-05-12T06:32:34.429Z,2266.88
2018-05-12T06:33:34.512Z,2103.75
2018-05-12T06:34:34.426Z,2210.63
2018-05-12T06:35:34.429Z,2424.38
2018-05-12T06:36:34.428Z,2458.13
2018-05-12T06:37:34.427Z,2047.50
2018-05-12T06:38:34.540Z,1659.38
2018-05-12T06:39:34.425Z,1766.25
2018-05-12T06:40:34.421Z,2143.13
2018-05-12T06:41:34.430Z,2739.38
2018-05-12T06:42:34.420Z,3256.88
2018-05-12T06:43:34.421Z,3571.88
2018-05-12T06:44:34.420Z,3656.25
2018-05-12T06:45:34.418Z,3493.13
2018-05-12T06:46:34.422Z,3285.00
2018-05-12T06:47:34.416Z,3279.38
2018-05-12T06:48:34.417Z,3296.25
2018-05-12T06:49:34.421Z,3200.63
2018-05-12T06:50:34.418Z,2936.25
2018-05-12T06:51:34.416Z,2874.38
2018-05-12T06:52:34.416Z,2351.25
2018-05-12T06:53:34.413Z,2351.25
2018-05-12T06:54:34.420Z,1996.88
2018-05-12T06:55:34.421Z,1878.75
2018-05-12T06:56:34.417Z,2806.88
2018-05-12T06:57:34.421Z,3375.00
2018-05-12T06:58:34.414Z,3442.50
2018-05-12T06:59:34.416Z,3616.88
2018-05-12T07:00:34.417Z,3931.88
2018-05-12T07:01:34.447Z,3999.38
2018-05-12T07:02:34.419Z,3909.38
2018-05-12T07:03:34.428Z,4241.25
2018-05-12T07:04:34.430Z,4230.00
2018-05-12T07:05:34.423Z,4111.88
2018-05-12T07:06:34.429Z,3836.25
2018-05-12T07:07:34.436Z,3785.63
2018-05-12T07:08:34.428Z,3965.63
2018-05-12T07:09:34.422Z,3937.50
2018-05-12T07:10:34.426Z,4005.00
2018-05-12T07:11:34.428Z,3903.75
2018-05-12T07:12:34.431Z,3926.25
2018-05-12T07:13:34.430Z,4038.75
2018-05-12T07:14:34.969Z,4224.38
2018-05-12T07:15:34.446Z,4005.00
2018-05-12T07:16:34.448Z,3706.88
2018-05-12T07:17:34.443Z,3729.38
2018-05-12T07:18:34.453Z,3526.88
2018-05-12T07:19:34.477Z,3493.13
2018-05-12T07:20:34.450Z,3881.25
2018-05-12T07:21:34.487Z,3988.13
2018-05-12T07:22:34.975Z,4134.38
2018-05-12T07:23:34.468Z,3971.25
2018-05-12T07:24:34.976Z,4095.00
2018-05-12T07:25:34.464Z,4314.38
2018-05-12T07:26:34.459Z,4432.50
2018-05-12T07:27:34.463Z,4235.63
2018-05-12T07:28:34.473Z,4230.00
2018-05-12T07:29:34.542Z,4342.50
2018-05-12T07:30:34.473Z,4297.50
2018-05-12T07:31:34.474Z,3864.38
2018-05-12T07:32:34.478Z,4021.88
2018-05-12T07:33:34.485Z,4230.00
2018-05-12T07:34:34.484Z,4010.63
2018-05-12T07:35:34.492Z,3853.13
2018-05-12T07:36:34.493Z,3875.63
2018-05-12T07:37:34.643Z,4027.50
2018-05-12T07:38:34.497Z,4083.75
2018-05-12T07:39:34.525Z,4263.75
2018-05-12T07:40:34.501Z,4280.63
2018-05-12T07:41:34.512Z,4291.88
2018-05-12T07:42:34.533Z,4511.25
2018-05-12T07:43:34.536Z,4421.25
2018-05-12T07:44:34.519Z,4443.75
2018-05-12T07:45:34.621Z,4606.88
2018-05-12T07:46:34.528Z,5146.88
2018-05-12T07:47:34.532Z,5400.00
2018-05-12T07:48:34.538Z,5484.38
2018-05-12T07:49:34.536Z,5658.75
2018-05-12T07:50:34.544Z,5574.38
2018-05-12T07:51:34.556Z,5546.25
2018-05-12T07:52:34.552Z,5422.50
2018-05-12T07:53:34.555Z,5259.38
2018-05-12T07:54:34.558Z,5540.63
2018-05-12T07:55:34.562Z,5636.25
2018-05-12T07:56:34.570Z,5698.13
2018-05-12T07:57:34.571Z,5670.00
2018-05-12T07:58:34.572Z,5551.88
2018-05-12T07:59:34.583Z,5512.50
2018-05-12T08:00:34.585Z,5034.38
2018-05-12T08:01:34.595Z,5416.88
2018-05-12T08:02:34.604Z,5360.63
2018-05-12T08:03:34.660Z,5647.50
2018-05-12T08:04:34.641Z,5985.00
2018-05-12T08:05:34.616Z,6114.38
2018-05-12T08:06:34.617Z,6075.00
2018-05-12T08:07:34.625Z,5968.13
2018-05-12T08:08:34.626Z,6148.13
2018-05-12T08:09:34.635Z,6018.75
2018-05-12T08:10:34.638Z,5996.25
2018-05-12T08:11:34.650Z,6120.00
2018-05-12T08:12:34.652Z,6170.63
2018-05-12T08:13:34.657Z,6305.63
2018-05-12T08:14:34.663Z,6277.50
2018-05-12T08:15:34.669Z,6221.25
2018-05-12T08:16:34.676Z,6271.88
2018-05-12T08:17:34.679Z,6226.88
2018-05-12T08:18:34.687Z,6243.75
2018-05-12T08:19:34.695Z,6148.13
2018-05-12T08:20:34.793Z,6091.88
2018-05-12T08:21:34.707Z,6361.88
2018-05-12T08:22:34.716Z,6536.25
2018-05-12T08:23:34.724Z,6485.63
2018-05-12T08:24:34.729Z,6429.38
2018-05-12T08:25:34.751Z,6322.50
2018-05-12T08:26:34.743Z,6013.13
2018-05-12T08:27:34.753Z,5866.88
2018-05-12T08:28:34.757Z,6142.50
2018-05-12T08:29:34.765Z,6136.88
2018-05-12T08:30:34.770Z,6136.88
2018-05-12T08:31:34.787Z,6249.38
2018-05-12T08:32:34.784Z,6142.50
2018-05-12T08:33:34.799Z,6103.13
2018-05-12T08:34:34.801Z,6181.88
2018-05-12T08:35:34.812Z,6345.00
2018-05-12T08:36:34.817Z,6738.75
2018-05-12T08:37:34.822Z,6761.25
2018-05-12T08:38:34.835Z,6615.00
2018-05-12T08:39:34.840Z,6553.13
2018-05-12T08:40:34.896Z,6496.88
2018-05-12T08:41:34.866Z,6553.13
2018-05-12T08:42:34.870Z,6508.13
2018-05-12T08:43:34.873Z,6322.50
2018-05-12T08:44:34.883Z,6226.88
2018-05-12T08:45:34.891Z,6046.88
2018-05-12T08:46:34.901Z,5968.13
2018-05-12T08:47:34.905Z,6176.25
2018-05-12T08:48:34.913Z,6333.75
2018-05-12T08:49:34.921Z,6058.13
2018-05-12T08:50:34.928Z,6283.13
2018-05-12T08:51:34.940Z,6451.88
2018-05-12T08:52:34.946Z,6153.75
2018-05-12T08:53:34.957Z,5878.13
2018-05-12T08:54:34.971Z,5619.38
2018-05-12T08:55:34.976Z,5782.50
2018-05-12T08:56:34.983Z,5568.75
2018-05-12T08:57:34.993Z,5715.00
2018-05-12T08:58:34.999Z,6457.50
2018-05-12T08:59:35.011Z,6429.38
2018-05-12T09:00:35.020Z,6541.88
2018-05-12T09:01:35.027Z,6502.50
2018-05-12T09:02:35.041Z,6187.50
2018-05-12T09:03:35.056Z,6193.13
2018-05-12T09:04:35.052Z,6007.50
2018-05-12T09:05:35.059Z,5805.00
2018-05-12T09:06:35.070Z,5805.00
2018-05-12T09:07:35.080Z,6024.38
2018-05-12T09:08:35.083Z,6333.75
2018-05-12T09:09:35.095Z,6626.25
2018-05-12T09:10:35.101Z,6440.63
2018-05-12T09:11:35.110Z,6260.63
2018-05-12T09:12:35.123Z,6480.00
2018-05-12T09:13:35.155Z,6823.13
2018-05-12T09:14:35.142Z,7126.88
2018-05-12T09:15:35.150Z,7098.75
2018-05-12T09:16:35.157Z,7093.13
2018-05-12T09:17:35.165Z,7048.13
2018-05-12T09:18:35.176Z,6885.00
2018-05-12T09:19:35.195Z,6564.38
2018-05-12T09:20:35.196Z,5461.88
2018-05-12T09:21:35.206Z,5799.38
2018-05-12T09:22:35.230Z,6795.00
2018-05-12T09:23:35.333Z,6733.13
2018-05-12T09:24:35.233Z,6575.63
2018-05-12T09:25:35.310Z,6423.75
2018-05-12T09:26:35.253Z,6463.13
2018-05-12T09:27:35.264Z,6519.38
2018-05-12T09:28:35.267Z,6288.75
2018-05-12T09:29:35.277Z,5720.63
2018-05-12T09:30:35.291Z,5445.00
2018-05-12T09:31:35.305Z,6136.88
2018-05-12T09:32:35.301Z,6705.00
2018-05-12T09:33:35.316Z,6609.38
2018-05-12T09:34:35.317Z,6541.88
2018-05-12T09:35:35.343Z,6345.00
2018-05-12T09:36:35.337Z,6615.00
2018-05-12T09:37:35.351Z,6648.75
2018-05-12T09:38:35.357Z,6575.63
2018-05-12T09:39:35.366Z,6412.50
2018-05-12T09:40:35.376Z,5737.50
2018-05-12T09:41:35.383Z,5760.00
2018-05-12T09:42:35.434Z,5315.63
2018-05-12T09:43:35.405Z,3976.88
2018-05-12T09:44:35.425Z,5895.00
2018-05-12T09:45:35.423Z,6103.13
2018-05-12T09:46:35.532Z,6491.25
2018-05-12T09:47:35.555Z,6496.88
2018-05-12T09:48:35.462Z,6536.25
2018-05-12T09:49:35.517Z,6277.50
2018-05-12T09:50:35.465Z,6631.88
2018-05-12T09:51:35.472Z,6474.38
2018-05-12T09:52:35.486Z,6772.50
2018-05-12T09:53:35.490Z,6519.38
2018-05-12T09:54:35.500Z,2778.75
2018-05-12T09:55:35.509Z,2542.50
2018-05-12T09:56:35.516Z,5681.25
2018-05-12T09:57:35.527Z,1845.00
2018-05-12T09:58:35.533Z,1659.38
2018-05-12T09:59:35.568Z,1884.38
2018-05-12T10:00:35.552Z,4865.63
2018-05-12T10:01:35.559Z,5130.00
2018-05-12T10:02:35.575Z,5799.38
2018-05-12T10:03:35.578Z,4033.13
2018-05-12T10:04:35.585Z,6131.25
2018-05-12T10:05:35.596Z,2784.38
2018-05-12T10:06:35.598Z,5973.75
2018-05-12T10:07:35.611Z,6007.50
2018-05-12T10:08:35.625Z,6063.75
2018-05-12T10:09:35.687Z,4770.00
2018-05-12T10:10:35.640Z,1777.50
2018-05-12T10:11:35.644Z,1417.50
2018-05-12T10:12:35.647Z,1406.25
2018-05-12T10:13:35.656Z,1473.75
2018-05-12T10:14:35.671Z,1653.75
2018-05-12T10:15:35.702Z,1575.00
2018-05-12T10:16:35.688Z,1603.13
2018-05-12T10:17:35.689Z,1659.38
2018-05-12T10:18:35.699Z,1726.88
2018-05-12T10:19:35.719Z,1839.38
2018-05-12T10:20:35.711Z,4550.63
2018-05-12T10:21:35.714Z,6406.88
2018-05-12T10:22:35.740Z,6316.88
2018-05-12T10:23:35.732Z,6648.75
2018-05-12T10:24:35.736Z,6485.63
2018-05-12T10:25:35.744Z,6575.63
2018-05-12T10:26:35.747Z,6339.38
2018-05-12T10:27:35.759Z,6153.75
2018-05-12T10:28:35.765Z,6266.25
2018-05-12T10:29:35.773Z,6525.00
2018-05-12T10:30:35.779Z,6564.38
2018-05-12T10:31:35.785Z,6541.88
2018-05-12T10:32:35.805Z,5895.00
2018-05-12T10:33:35.798Z,5563.13
2018-05-12T10:34:35.806Z,6108.75
2018-05-12T10:35:35.815Z,5895.00
2018-05-12T10:36:35.828Z,5776.88
2018-05-12T10:37:35.831Z,5557.50
2018-05-12T10:38:35.838Z,4297.50
2018-05-12T10:39:36.622Z,2283.75
2018-05-12T10:40:35.860Z,4308.75
2018-05-12T10:41:35.867Z,5422.50
2018-05-12T10:42:35.930Z,5703.75
2018-05-12T10:43:35.942Z,5951.25
2018-05-12T10:44:35.889Z,5872.50
2018-05-12T10:45:35.897Z,5776.88
2018-05-12T10:46:35.908Z,5765.63
2018-05-12T10:47:35.915Z,5529.38
2018-05-12T10:48:35.923Z,4950.00
2018-05-12T10:49:35.934Z,4876.88
2018-05-12T10:50:35.944Z,5085.00
2018-05-12T10:51:35.953Z,5310.00
2018-05-12T10:52:35.960Z,5343.75
2018-05-12T10:53:35.963Z,5602.50
2018-05-12T10:54:35.976Z,5439.38
2018-05-12T10:55:35.991Z,5506.88
2018-05-12T10:56:36.011Z,5208.75
2018-05-12T10:57:36.012Z,5236.88
2018-05-12T10:58:36.010Z,5490.00
2018-05-12T10:59:36.020Z,5383.13
2018-05-12T11:00:36.034Z,5433.75
2018-05-12T11:01:36.033Z,5377.50
2018-05-12T11:02:36.042Z,5343.75
2018-05-12T11:03:36.066Z,5450.63
2018-05-12T11:04:36.064Z,5293.13
2018-05-12T11:05:36.065Z,5338.13
2018-05-12T11:06:36.076Z,5253.75
2018-05-12T11:07:36.087Z,4871.25
2018-05-12T11:08:36.090Z,4871.25
2018-05-12T11:09:36.154Z,4871.25
2018-05-12T11:10:36.115Z,4950.00
2018-05-12T11:11:36.123Z,4831.88
2018-05-12T11:12:36.127Z,4792.50
2018-05-12T11:13:36.133Z,4803.75
2018-05-12T11:14:36.140Z,4741.88
2018-05-12T11:15:36.151Z,4826.25
2018-05-12T11:16:36.162Z,5011.88
2018-05-12T11:17:36.169Z,4950.00
2018-05-12T11:18:36.183Z,4893.75
2018-05-12T11:19:36.188Z,4640.63
2018-05-12T11:20:36.192Z,4263.75
2018-05-12T11:21:36.217Z,4353.75
2018-05-12T11:22:36.223Z,4230.00
2018-05-12T11:23:36.215Z,4246.88
2018-05-12T11:24:36.227Z,4151.25
2018-05-12T11:25:36.233Z,4443.75
2018-05-12T11:26:36.296Z,4685.63
2018-05-12T11:27:36.256Z,4803.75
2018-05-12T11:28:36.267Z,4618.13
2018-05-12T11:29:36.273Z,4730.63
2018-05-12T11:30:36.277Z,4876.88
2018-05-12T11:31:36.282Z,4156.88
2018-05-12T11:32:36.295Z,4438.13
2018-05-12T11:33:36.295Z,4297.50
2018-05-12T11:34:36.314Z,4162.50
2018-05-12T11:35:36.310Z,4168.13
2018-05-12T11:36:36.317Z,4387.50
2018-05-12T11:37:36.324Z,4471.88
2018-05-12T11:38:36.365Z,2345.63
2018-05-12T11:39:36.358Z,2013.75
2018-05-12T11:40:36.353Z,2041.88
2018-05-12T11:41:36.358Z,3172.50
2018-05-12T11:42:36.364Z,4168.13
2018-05-12T11:43:36.380Z,4275.00
2018-05-12T11:44:36.530Z,4027.50
2018-05-12T11:45:36.391Z,3532.50
2018-05-12T11:46:36.406Z,2030.63
2018-05-12T11:47:36.400Z,3459.38
2018-05-12T11:48:36.408Z,4038.75
2018-05-12T11:49:36.423Z,4320.00
2018-05-12T11:50:36.441Z,4280.63
2018-05-12T11:51:36.439Z,4370.63
2018-05-12T11:52:36.446Z,4258.13
2018-05-12T11:53:36.454Z,4106.25
2018-05-12T11:54:36.455Z,4528.13
2018-05-12T11:55:36.474Z,4415.63
2018-05-12T11:56:36.483Z,4241.25
2018-05-12T11:57:36.478Z,4336.88
2018-05-12T11:58:36.488Z,4336.88
2018-05-12T11:59:36.501Z,4584.38
2018-05-12T12:00:36.507Z,4432.50
2018-05-12T12:01:36.514Z,4376.25
2018-05-12T12:02:36.585Z,4291.88
2018-05-12T12:03:36.556Z,4353.75
2018-05-12T12:04:36.535Z,4567.50
2018-05-12T12:05:36.537Z,4325.63
2018-05-12T12:06:36.543Z,4246.88
2018-05-12T12:07:36.552Z,4055.63
2018-05-12T12:08:36.561Z,3802.50
2018-05-12T12:09:36.581Z,3358.13
2018-05-12T12:10:36.574Z,3436.88
2018-05-12T12:11:36.599Z,3706.88
2018-05-12T12:12:36.592Z,3864.38
2018-05-12T12:13:36.590Z,3937.50
2018-05-12T12:14:36.601Z,3982.50
2018-05-12T12:15:36.605Z,3920.63
2018-05-12T12:16:36.709Z,3847.50
2018-05-12T12:17:36.634Z,4072.50
2018-05-12T12:18:36.638Z,3763.13
2018-05-12T12:19:36.635Z,3498.75
2018-05-12T12:20:36.643Z,3470.63
2018-05-12T12:21:36.651Z,3346.88
2018-05-12T12:22:36.660Z,2998.13
2018-05-12T12:23:36.664Z,3391.88
2018-05-12T12:24:36.679Z,3195.00
2018-05-12T12:25:36.679Z,3178.13
2018-05-12T12:26:36.696Z,2880.00
2018-05-12T12:27:36.701Z,2716.88
2018-05-12T12:28:36.704Z,2896.88
2018-05-12T12:29:36.709Z,2205.00